Time;durP1;ratioP1;P1;durP2;ratioP2;P2;SDS_P1;SDS_P2;PMS_P1;PMS_P2;Temp;Humidity;BMP_temperature;BMP_pressure;BME280_temperature;BME280_humidity;BME280_pressure;Samples;Min_cycle;Max_cycle;Signal;HPM_P1;HPM_P2
2021/05/29 00:02:14;;;;;;;5.30;3.42;;;;;;;;;;6038385;23;20167;-91
2021/05/29 00:05:21;;;;;;;14.23;4.33;;;;;;;;;;6054067;23;20228;-88
2021/05/29 00:08:25;;;;;;;7.07;3.60;;;;;;;;;;6050395;23;20175;-90
2021/05/29 00:11:30;;;;;;;9.18;3.70;;;;;;;;;;6048660;23;20172;-90
2021/05/29 00:14:36;;;;;;;8.80;4.03;;;;;;;;;;6032288;23;20172;-89
2021/05/29 00:17:41;;;;;;;7.63;4.30;;;;;;;;;;6048406;23;20174;-88
2021/05/29 00:20:46;;;;;;;10.48;4.80;;;;;;;;;;6047657;23;20204;-90
2021/05/29 00:23:51;;;;;;;8.60;3.85;;;;;;;;;;6031002;23;20171;-90
2021/05/29 00:26:56;;;;;;;6.67;3.70;;;;;;;;;;6057528;23;20246;-91
2021/05/29 00:30:01;;;;;;;12.20;4.37;;;;;;;;;;6075950;23;20256;-90
2021/05/29 00:33:06;;;;;;;7.63;4.23;;;;;;;;;;6076608;23;20166;-89
2021/05/29 00:36:11;;;;;;;8.13;4.35;;;;;;;;;;6077865;23;20175;-91
2021/05/29 00:39:16;;;;;;;11.65;4.32;;;;;;;;;;6058795;23;20287;-89
2021/05/29 00:42:20;;;;;;;9.20;4.17;;;;;;;;;;6075900;23;20174;-91
2021/05/29 00:45:26;;;;;;;7.40;4.30;;;;;;;;;;6076172;23;20224;-89
2021/05/29 00:48:30;;;;;;;10.10;4.05;;;;;;;;;;6059027;23;20170;-90
2021/05/29 00:51:37;;;;;;;8.85;3.78;;;;;;;;;;6074579;23;20219;-89
2021/05/29 00:54:42;;;;;;;6.00;3.63;;;;;;;;;;6060422;23;20167;-89
2021/05/29 00:57:47;;;;;;;7.53;4.03;;;;;;;;;;6077178;23;20215;-90
2021/05/29 01:00:51;;;;;;;11.70;4.20;;;;;;;;;;6076611;23;20198;-89
2021/05/29 01:03:56;;;;;;;6.57;3.57;;;;;;;;;;6076226;23;20552;-89
2021/05/29 01:07:02;;;;;;;7.10;3.93;;;;;;;;;;6076018;23;20477;-90
2021/05/29 01:10:09;;;;;;;6.03;3.73;;;;;;;;;;6076335;23;20223;-89
2021/05/29 01:13:13;;;;;;;14.73;3.97;;;;;;;;;;6060125;23;20170;-90
2021/05/29 01:16:40;;;;;;;7.50;3.93;;;;;;;;;;6060303;23;20219;-89
2021/05/29 01:19:43;;;;;;;12.10;4.13;;;;;;;;;;6060260;23;20242;-89
2021/05/29 01:22:49;;;;;;;8.27;3.97;;;;;;;;;;6075948;23;20178;-90
2021/05/29 01:25:54;;;;;;;5.90;3.73;;;;;;;;;;6077030;23;20178;-89
2021/05/29 01:28:59;;;;;;;8.37;4.10;;;;;;;;;;6075822;23;20232;-88
2021/05/29 01:32:06;;;;;;;8.23;4.43;;;;;;;;;;6059305;23;20233;-90
2021/05/29 01:35:12;;;;;;;10.30;4.77;;;;;;;;;;6060825;23;20167;-90
2021/05/29 01:38:19;;;;;;;7.40;4.83;;;;;;;;;;6060193;23;20222;-88
2021/05/29 01:41:24;;;;;;;7.47;4.17;;;;;;;;;;6060075;23;20179;-90
2021/05/29 01:44:29;;;;;;;8.27;4.60;;;;;;;;;;6060889;23;20189;-90
2021/05/29 01:47:35;;;;;;;12.70;4.87;;;;;;;;;;6060112;23;20199;-88
2021/05/29 01:50:46;;;;;;;10.40;4.60;;;;;;;;;;6061005;23;20199;-88
2021/05/29 01:53:53;;;;;;;7.70;4.40;;;;;;;;;;6059578;23;20214;-89
2021/05/29 01:56:58;;;;;;;10.67;4.70;;;;;;;;;;6058490;23;20175;-89
2021/05/29 02:00:04;;;;;;;7.67;4.63;;;;;;;;;;6077257;23;20207;-90
2021/05/29 02:03:16;;;;;;;8.83;4.70;;;;;;;;;;6076474;23;20236;-88
2021/05/29 02:06:20;;;;;;;8.77;4.80;;;;;;;;;;6060218;23;20218;-88
2021/05/29 02:09:26;;;;;;;8.20;4.67;;;;;;;;;;6059640;23;20488;-89
2021/05/29 02:12:37;;;;;;;8.60;4.53;;;;;;;;;;6059585;23;20189;-89
2021/05/29 02:15:43;;;;;;;11.13;4.73;;;;;;;;;;6059195;23;20186;-89
2021/05/29 02:18:47;;;;;;;10.23;4.47;;;;;;;;;;6075678;23;20169;-90
2021/05/29 02:21:52;;;;;;;8.97;4.70;;;;;;;;;;6059200;23;20170;-90
2021/05/29 02:24:58;;;;;;;11.63;5.27;;;;;;;;;;6061007;23;20159;-90
2021/05/29 02:28:03;;;;;;;7.37;4.57;;;;;;;;;;6038192;23;20194;-89
2021/05/29 02:31:08;;;;;;;10.67;4.97;;;;;;;;;;6047720;23;20175;-90
2021/05/29 02:34:13;;;;;;;8.00;4.73;;;;;;;;;;6032347;23;20171;-89
2021/05/29 02:37:20;;;;;;;8.87;4.80;;;;;;;;;;6031878;23;20232;-89
2021/05/29 02:40:25;;;;;;;11.30;5.17;;;;;;;;;;6046796;23;20202;-89
2021/05/29 02:43:30;;;;;;;7.73;4.47;;;;;;;;;;6029759;23;20197;-90
2021/05/29 02:46:34;;;;;;;8.10;4.63;;;;;;;;;;6030431;23;20215;-89
2021/05/29 02:49:39;;;;;;;12.37;4.80;;;;;;;;;;6031283;23;20614;-88
2021/05/29 02:52:44;;;;;;;7.53;4.40;;;;;;;;;;6046800;23;20179;-88
2021/05/29 02:55:49;;;;;;;8.13;4.60;;;;;;;;;;6046991;23;20171;-88
2021/05/29 02:58:54;;;;;;;11.10;4.40;;;;;;;;;;6049059;23;20422;-88
2021/05/29 03:01:59;;;;;;;7.07;4.03;;;;;;;;;;6048885;23;20178;-89
2021/05/29 03:05:03;;;;;;;7.87;3.97;;;;;;;;;;6048193;23;20782;-87
2021/05/29 03:08:08;;;;;;;8.67;4.70;;;;;;;;;;6049103;23;20163;-90
2021/05/29 03:11:14;;;;;;;8.50;4.93;;;;;;;;;;6048858;23;20503;-89
2021/05/29 03:14:19;;;;;;;9.30;4.57;;;;;;;;;;6033060;23;20630;-90
2021/05/29 03:17:23;;;;;;;10.43;5.20;;;;;;;;;;6047654;23;20198;-91
2021/05/29 03:20:29;;;;;;;13.67;4.50;;;;;;;;;;6032465;23;20277;-88
2021/05/29 03:23:34;;;;;;;8.73;4.27;;;;;;;;;;6046952;23;20262;-90
2021/05/29 03:26:39;;;;;;;12.10;5.10;;;;;;;;;;6038286;23;20225;-90
2021/05/29 03:29:43;;;;;;;7.30;4.67;;;;;;;;;;6077114;23;20272;-88
2021/05/29 03:32:48;;;;;;;8.70;5.13;;;;;;;;;;6077092;23;20178;-89
2021/05/29 03:35:52;;;;;;;10.47;5.23;;;;;;;;;;6077011;23;20223;-90
2021/05/29 03:38:57;;;;;;;9.03;5.03;;;;;;;;;;6060772;23;20174;-90
2021/05/29 03:42:03;;;;;;;11.10;4.87;;;;;;;;;;6077618;23;20195;-90
2021/05/29 03:45:08;;;;;;;10.43;5.37;;;;;;;;;;6077409;23;20346;-89
2021/05/29 03:48:13;;;;;;;9.07;5.13;;;;;;;;;;6076087;23;20614;-89
2021/05/29 03:51:17;;;;;;;14.13;5.00;;;;;;;;;;6075536;23;20234;-89
2021/05/29 03:54:22;;;;;;;7.23;4.20;;;;;;;;;;6060229;23;20246;-89
2021/05/29 03:57:28;;;;;;;9.73;5.10;;;;;;;;;;6075862;23;20551;-90
2021/05/29 04:00:37;;;;;;;10.20;4.80;;;;;;;;;;6076809;23;20243;-89
2021/05/29 04:03:42;;;;;;;11.13;5.03;;;;;;;;;;6077639;23;20295;-88
2021/05/29 04:06:46;;;;;;;8.87;4.93;;;;;;;;;;6078426;23;20509;-90
2021/05/29 04:09:51;;;;;;;9.23;4.33;;;;;;;;;;6079101;23;20170;-88
2021/05/29 04:12:56;;;;;;;7.30;4.77;;;;;;;;;;6076807;23;20186;-89
2021/05/29 04:16:01;;;;;;;7.87;4.37;;;;;;;;;;6077108;23;20514;-90
2021/05/29 04:19:05;;;;;;;9.50;4.43;;;;;;;;;;6060336;23;20189;-90
2021/05/29 04:22:10;;;;;;;8.07;4.50;;;;;;;;;;6075583;23;20174;-89
2021/05/29 04:25:16;;;;;;;10.83;4.70;;;;;;;;;;6075966;23;20182;-89
2021/05/29 04:28:21;;;;;;;10.53;4.70;;;;;;;;;;6073679;23;20227;-89
2021/05/29 04:31:25;;;;;;;7.33;4.70;;;;;;;;;;6075368;23;20175;-90
2021/05/29 04:34:30;;;;;;;12.17;4.73;;;;;;;;;;6077560;23;20233;-90
2021/05/29 04:37:34;;;;;;;7.07;4.50;;;;;;;;;;6078307;23;20170;-90
2021/05/29 04:40:38;;;;;;;9.83;5.03;;;;;;;;;;6075986;23;20579;-90
2021/05/29 04:43:44;;;;;;;11.70;5.10;;;;;;;;;;6093738;23;20174;-89
2021/05/29 04:46:51;;;;;;;10.90;4.53;;;;;;;;;;6077358;23;20175;-89
2021/05/29 04:49:57;;;;;;;9.53;5.60;;;;;;;;;;6076448;23;20166;-90
2021/05/29 04:53:01;;;;;;;14.47;7.40;;;;;;;;;;6093289;23;20291;-90
2021/05/29 04:56:07;;;;;;;10.07;5.60;;;;;;;;;;6093199;23;20618;-90
2021/05/29 04:59:12;;;;;;;8.90;5.30;;;;;;;;;;6092444;23;20170;-89
2021/05/29 05:02:17;;;;;;;7.10;4.73;;;;;;;;;;6092634;23;20178;-90
2021/05/29 05:05:21;;;;;;;10.13;4.40;;;;;;;;;;6091617;23;20223;-89
2021/05/29 05:08:26;;;;;;;8.23;4.70;;;;;;;;;;6075981;23;20234;-89
2021/05/29 05:11:34;;;;;;;8.20;4.77;;;;;;;;;;6093650;23;20614;-89
2021/05/29 05:14:40;;;;;;;10.27;5.17;;;;;;;;;;6090955;23;20626;-89
2021/05/29 05:17:44;;;;;;;10.10;5.27;;;;;;;;;;6093034;23;20661;-91
2021/05/29 05:20:49;;;;;;;12.07;5.80;;;;;;;;;;6092626;23;20198;-91
2021/05/29 05:23:56;;;;;;;8.97;5.03;;;;;;;;;;6091442;23;20182;-90
2021/05/29 05:27:00;;;;;;;6.80;4.47;;;;;;;;;;6076286;23;20186;-90
2021/05/29 05:30:07;;;;;;;10.00;5.07;;;;;;;;;;6077075;23;20198;-89
2021/05/29 05:33:12;;;;;;;11.77;5.18;;;;;;;;;;6063360;23;20202;-91
2021/05/29 05:36:17;;;;;;;9.10;4.80;;;;;;;;;;6060012;23;20298;-90
2021/05/29 05:39:21;;;;;;;8.30;4.30;;;;;;;;;;6076744;23;20174;-90
2021/05/29 05:42:26;;;;;;;8.67;4.27;;;;;;;;;;6076880;23;20190;-90
2021/05/29 05:45:31;;;;;;;9.00;4.15;;;;;;;;;;6061672;23;20186;-90
2021/05/29 05:48:37;;;;;;;6.13;3.90;;;;;;;;;;6062074;23;20234;-89
2021/05/29 05:51:42;;;;;;;6.00;3.70;;;;;;;;;;6077428;23;20181;-89
2021/05/29 05:54:47;;;;;;;7.38;4.05;;;;;;;;;;6076555;23;20223;-89
2021/05/29 05:57:53;;;;;;;5.97;3.75;;;;;;;;;;6077261;23;20626;-89
2021/05/29 06:00:58;;;;;;;6.22;3.50;;;;;;;;;;6078115;23;20198;-89
2021/05/29 06:04:03;;;;;;;5.53;3.70;;;;;;;;;;6076603;23;20170;-90
2021/05/29 06:07:07;;;;;;;8.02;4.07;;;;;;;;;;6077747;23;20178;-89
2021/05/29 06:10:13;;;;;;;6.40;3.60;;;;;;;;;;6077111;23;20194;-89
2021/05/29 06:13:30;;;;;;;6.32;3.40;;;;;;;;;;6077352;23;20175;-90
2021/05/29 06:20:00;;;;;;;5.95;3.00;;;;;;;;;;6060297;23;20219;-90
2021/05/29 06:23:04;;;;;;;5.82;2.72;;;;;;;;;;6077109;23;20178;-89
2021/05/29 06:26:10;;;;;;;5.05;2.63;;;;;;;;;;6077553;23;20218;-91
2021/05/29 06:29:15;;;;;;;6.07;2.40;;;;;;;;;;6076620;23;20183;-91
2021/05/29 06:32:20;;;;;;;4.72;2.58;;;;;;;;;;6059891;23;20186;-91
2021/05/29 06:35:25;;;;;;;3.15;2.45;;;;;;;;;;6076316;23;20267;-87
2021/05/29 06:38:29;;;;;;;3.05;2.30;;;;;;;;;;6077948;23;20299;-92
2021/05/29 06:41:36;;;;;;;4.65;2.22;;;;;;;;;;6077314;23;20237;-90
2021/05/29 06:44:40;;;;;;;3.33;2.15;;;;;;;;;;6059783;23;20167;-91
2021/05/29 06:47:46;;;;;;;4.10;2.42;;;;;;;;;;6075275;23;20182;-91
2021/05/29 06:50:52;;;;;;;4.50;3.00;;;;;;;;;;6060849;23;20202;-92
2021/05/29 06:53:57;;;;;;;6.53;2.33;;;;;;;;;;6076102;23;20259;-89
2021/05/29 07:00:26;;;;;;;5.30;2.20;;;;;;;;;;6058899;23;20641;-88
2021/05/29 07:03:32;;;;;;;6.85;2.35;;;;;;;;;;6075452;23;20265;-91
2021/05/29 07:06:36;;;;;;;5.38;1.90;;;;;;;;;;6059807;23;20178;-92
2021/05/29 07:09:41;;;;;;;3.47;2.10;;;;;;;;;;6060826;23;20259;-91
2021/05/29 07:12:46;;;;;;;5.95;1.90;;;;;;;;;;6076791;23;20231;-92
2021/05/29 07:15:50;;;;;;;3.95;2.05;;;;;;;;;;6076580;23;20207;-91
2021/05/29 07:18:56;;;;;;;6.57;2.10;;;;;;;;;;6063465;23;20179;-91
2021/05/29 07:22:01;;;;;;;5.22;2.15;;;;;;;;;;6078252;23;20818;-90
2021/05/29 07:25:06;;;;;;;3.78;2.35;;;;;;;;;;6078126;23;20230;-91
2021/05/29 07:28:10;;;;;;;3.15;2.00;;;;;;;;;;6074281;23;20194;-91
2021/05/29 07:31:15;;;;;;;3.83;1.73;;;;;;;;;;6093788;23;20220;-91
2021/05/29 07:34:22;;;;;;;7.10;2.13;;;;;;;;;;6078194;23;20183;-92
2021/05/29 07:37:27;;;;;;;3.75;2.15;;;;;;;;;;6092887;23;20229;-92
2021/05/29 07:40:31;;;;;;;3.63;1.92;;;;;;;;;;6077511;23;20189;-92
2021/05/29 07:43:36;;;;;;;4.03;1.77;;;;;;;;;;6096668;23;20190;-90
2021/05/29 07:46:41;;;;;;;3.08;1.92;;;;;;;;;;6097358;23;20173;-91
2021/05/29 07:49:46;;;;;;;5.80;2.10;;;;;;;;;;6096769;23;20196;-91
2021/05/29 07:52:51;;;;;;;4.90;2.00;;;;;;;;;;6096156;23;20700;-90
2021/05/29 07:55:59;;;;;;;1.90;1.75;;;;;;;;;;6093871;23;20198;-89
2021/05/29 07:59:06;;;;;;;3.20;1.80;;;;;;;;;;6094753;23;20167;-92
2021/05/29 08:02:11;;;;;;;7.38;2.00;;;;;;;;;;6081294;23;20215;-93
2021/05/29 08:05:18;;;;;;;5.20;1.75;;;;;;;;;;6080322;23;20190;-92
2021/05/29 08:08:22;;;;;;;4.03;1.80;;;;;;;;;;6097091;23;20171;-92
2021/05/29 08:11:28;;;;;;;4.82;1.70;;;;;;;;;;6079380;23;20182;-90
2021/05/29 08:14:34;;;;;;;2.08;1.50;;;;;;;;;;6099184;23;20174;-91
2021/05/29 08:17:38;;;;;;;2.78;1.60;;;;;;;;;;6080972;23;20182;-92
2021/05/29 08:20:45;;;;;;;5.68;1.92;;;;;;;;;;6083068;23;20198;-91
2021/05/29 08:23:49;;;;;;;3.35;1.70;;;;;;;;;;6079254;23;20166;-92
2021/05/29 08:26:54;;;;;;;3.63;1.55;;;;;;;;;;6079660;23;20269;-91
2021/05/29 08:30:00;;;;;;;5.22;2.00;;;;;;;;;;6077023;23;20242;-91
2021/05/29 08:33:05;;;;;;;6.05;1.90;;;;;;;;;;6080501;23;20217;-90
2021/05/29 08:36:11;;;;;;;6.15;1.90;;;;;;;;;;6079171;23;20219;-92
2021/05/29 08:39:16;;;;;;;2.92;1.58;;;;;;;;;;6062513;23;20167;-90
2021/05/29 08:42:21;;;;;;;3.33;1.70;;;;;;;;;;6078571;23;20170;-88
2021/05/29 08:45:28;;;;;;;2.90;1.80;;;;;;;;;;6078895;23;20170;-91
2021/05/29 08:48:32;;;;;;;6.93;2.05;;;;;;;;;;6062832;23;20215;-91
2021/05/29 08:51:38;;;;;;;6.43;2.03;;;;;;;;;;6078340;23;20219;-87
2021/05/29 08:54:43;;;;;;;5.53;1.80;;;;;;;;;;6078638;23;20170;-88
2021/05/29 08:57:49;;;;;;;2.92;1.58;;;;;;;;;;6078134;23;20691;-88
2021/05/29 09:00:54;;;;;;;3.90;1.85;;;;;;;;;;6078922;23;20194;-88
2021/05/29 09:03:59;;;;;;;4.03;1.85;;;;;;;;;;6061405;23;20198;-89
2021/05/29 09:07:05;;;;;;;2.85;1.65;;;;;;;;;;6062409;23;20178;-88
2021/05/29 09:10:17;;;;;;;74.68;34.00;;;;;;;;;;6079460;23;20223;-88
2021/05/29 09:13:24;;;;;;;6.60;2.10;;;;;;;;;;6062699;23;20170;-89
2021/05/29 09:16:29;;;;;;;3.67;2.33;;;;;;;;;;6080518;23;20175;-89
2021/05/29 09:19:52;;;;;;;3.17;1.60;;;;;;;;;;6077840;23;20200;-88
2021/05/29 09:22:58;;;;;;;5.88;2.17;;;;;;;;;;6079094;23;20514;-89
2021/05/29 09:26:02;;;;;;;2.83;1.70;;;;;;;;;;6080878;23;20179;-89
2021/05/29 09:29:16;;;;;;;4.80;2.00;;;;;;;;;;6078414;23;20195;-88
2021/05/29 09:32:21;;;;;;;5.65;1.70;;;;;;;;;;6078459;23;20287;-91
2021/05/29 09:35:31;;;;;;;6.53;1.90;;;;;;;;;;6078986;23;20203;-88
2021/05/29 09:38:39;;;;;;;4.90;1.60;;;;;;;;;;6079189;23;20225;-88
2021/05/29 09:41:44;;;;;;;4.63;1.40;;;;;;;;;;6079718;23;20278;-91
2021/05/29 09:44:48;;;;;;;3.08;1.88;;;;;;;;;;6077290;23;20166;-89
2021/05/29 09:48:12;;;;;;;3.67;1.55;;;;;;;;;;6079601;23;20171;-88
2021/05/29 09:51:16;;;;;;;3.00;1.67;;;;;;;;;;6061704;23;20246;-89
2021/05/29 09:54:25;;;;;;;4.10;1.15;;;;;;;;;;6077477;23;20587;-89
2021/05/29 09:57:30;;;;;;;1.98;1.20;;;;;;;;;;6078472;23;20187;-90
2021/05/29 10:00:41;;;;;;;3.35;1.10;;;;;;;;;;6061769;23;20198;-90
2021/05/29 10:03:47;;;;;;;3.13;1.52;;;;;;;;;;6077266;23;20183;-89
2021/05/29 10:06:55;;;;;;;2.60;1.60;;;;;;;;;;6079187;23;20367;-89
2021/05/29 10:10:01;;;;;;;2.97;1.60;;;;;;;;;;6063191;23;20175;-89
2021/05/29 10:13:06;;;;;;;7.93;1.90;;;;;;;;;;6060485;23;20177;-88
2021/05/29 10:16:11;;;;;;;6.80;2.30;;;;;;;;;;6063378;23;20498;-90
2021/05/29 10:19:16;;;;;;;21.85;4.95;;;;;;;;;;6063021;23;20178;-88
2021/05/29 10:22:21;;;;;;;10.95;3.00;;;;;;;;;;6076555;23;20174;-88
2021/05/29 10:25:27;;;;;;;8.77;3.13;;;;;;;;;;6077862;23;20183;-89
2021/05/29 10:28:31;;;;;;;10.63;3.63;;;;;;;;;;6093970;23;20210;-89
2021/05/29 10:31:37;;;;;;;4.75;1.55;;;;;;;;;;6081281;23;20642;-89
2021/05/29 10:34:56;;;;;;;5.10;1.85;;;;;;;;;;6097082;23;20274;-89
2021/05/29 10:38:00;;;;;;;6.78;1.70;;;;;;;;;;6095143;23;20158;-90
2021/05/29 10:41:06;;;;;;;2.47;1.30;;;;;;;;;;6096295;23;20420;-89
2021/05/29 10:44:25;;;;;;;2.78;1.20;;;;;;;;;;6097134;23;20185;-91
2021/05/29 10:47:30;;;;;;;1.50;1.10;;;;;;;;;;6096788;23;20579;-90
2021/05/29 10:50:55;;;;;;;2.70;1.20;;;;;;;;;;6080230;23;20214;-91
2021/05/29 10:54:09;;;;;;;2.50;1.40;;;;;;;;;;6079049;23;20174;-89
2021/05/29 10:57:15;;;;;;;4.13;1.65;;;;;;;;;;6097474;23;20191;-89
2021/05/29 11:00:39;;;;;;;1.48;0.70;;;;;;;;;;6097827;23;20559;-89
2021/05/29 11:03:44;;;;;;;3.35;0.80;;;;;;;;;;6100754;23;20190;-90
2021/05/29 11:06:49;;;;;;;1.00;0.80;;;;;;;;;;6098855;23;20174;-89
2021/05/29 11:09:57;;;;;;;2.55;0.90;;;;;;;;;;6084590;23;20215;-91
2021/05/29 11:13:03;;;;;;;3.42;1.00;;;;;;;;;;6082022;23;20219;-89
2021/05/29 11:16:07;;;;;;;2.92;1.17;;;;;;;;;;6098552;23;20182;-90
2021/05/29 11:19:12;;;;;;;1.30;1.17;;;;;;;;;;6082213;23;20178;-90
2021/05/29 11:22:18;;;;;;;2.60;1.10;;;;;;;;;;6099093;23;20267;-92
2021/05/29 11:25:27;;;;;;;1.95;1.20;;;;;;;;;;6081850;23;20220;-88
2021/05/29 11:28:34;;;;;;;2.03;1.27;;;;;;;;;;6098992;23;20243;-88
2021/05/29 11:31:43;;;;;;;4.28;1.70;;;;;;;;;;6098040;23;20170;-91
2021/05/29 11:34:48;;;;;;;3.58;1.70;;;;;;;;;;6099791;23;20638;-87
2021/05/29 11:37:57;;;;;;;5.65;2.08;;;;;;;;;;6100281;23;20178;-89
2021/05/29 11:41:08;;;;;;;6.18;1.48;;;;;;;;;;6098832;23;20194;-89
2021/05/29 11:44:21;;;;;;;6.30;1.63;;;;;;;;;;6081350;23;20655;-87
2021/05/29 11:47:26;;;;;;;5.60;1.30;;;;;;;;;;6098478;23;20230;-87
2021/05/29 11:50:31;;;;;;;8.00;1.33;;;;;;;;;;6096715;23;20214;-90
2021/05/29 11:53:36;;;;;;;1.55;1.27;;;;;;;;;;6082181;23;20366;-88
2021/05/29 11:56:48;;;;;;;10.38;1.52;;;;;;;;;;6098339;23;20183;-89
2021/05/29 12:00:05;;;;;;;1.98;1.33;;;;;;;;;;6100199;23;20192;-89
2021/05/29 12:03:14;;;;;;;4.22;1.00;;;;;;;;;;6084197;23;20226;-89
2021/05/29 12:06:36;;;;;;;8.65;0.95;;;;;;;;;;6099032;23;20179;-89
2021/05/29 12:09:42;;;;;;;3.25;0.80;;;;;;;;;;6081597;23;20227;-91
2021/05/29 12:12:52;;;;;;;2.55;0.90;;;;;;;;;;6098151;23;20515;-91
2021/05/29 12:16:02;;;;;;;1.50;1.00;;;;;;;;;;6081078;23;20174;-90
2021/05/29 12:19:09;;;;;;;3.58;1.30;;;;;;;;;;6084589;23;20183;-88
2021/05/29 12:22:17;;;;;;;2.08;1.00;;;;;;;;;;6098885;23;20192;-91
2021/05/29 12:25:34;;;;;;;3.45;1.27;;;;;;;;;;6098329;23;20170;-91
2021/05/29 12:28:39;;;;;;;1.15;0.85;;;;;;;;;;6099194;23;20170;-88
2021/05/29 12:31:48;;;;;;;4.55;1.08;;;;;;;;;;6081560;23;20170;-88
2021/05/29 12:34:53;;;;;;;2.35;1.27;;;;;;;;;;6098001;23;20211;-90
2021/05/29 12:38:08;;;;;;;3.85;0.88;;;;;;;;;;6080109;23;20174;-90
2021/05/29 12:41:15;;;;;;;0.90;0.65;;;;;;;;;;6097982;23;20305;-91
2021/05/29 12:44:20;;;;;;;1.30;0.77;;;;;;;;;;6082257;23;20178;-88
2021/05/29 12:47:26;;;;;;;1.42;0.93;;;;;;;;;;6097668;23;20271;-88
2021/05/29 12:50:32;;;;;;;4.20;1.83;;;;;;;;;;6097297;23;20170;-92
2021/05/29 12:53:38;;;;;;;2.42;0.90;;;;;;;;;;6097409;23;20196;-88
2021/05/29 12:56:53;;;;;;;3.33;0.95;;;;;;;;;;6100405;23;20223;-90
2021/05/29 13:00:14;;;;;;;1.98;0.90;;;;;;;;;;6080896;23;20175;-88
2021/05/29 13:10:19;;;;;;;2.92;1.08;;;;;;;;;;6078631;23;20255;-88
2021/05/29 13:13:24;;;;;;;1.83;1.17;;;;;;;;;;6097147;23;20623;-90
2021/05/29 13:16:28;;;;;;;3.13;1.10;;;;;;;;;;6097876;23;20174;-87
2021/05/29 13:19:50;;;;;;;3.25;1.20;;;;;;;;;;6097245;23;20166;-86
2021/05/29 13:23:00;;;;;;;1.40;1.08;;;;;;;;;;6079276;23;20178;-89
2021/05/29 13:26:06;;;;;;;1.13;1.02;;;;;;;;;;6096245;23;20294;-92
2021/05/29 13:29:16;;;;;;;2.40;1.20;;;;;;;;;;6079890;23;20292;-89
2021/05/29 13:32:22;;;;;;;2.22;1.27;;;;;;;;;;6062265;23;20523;-88
2021/05/29 13:35:26;;;;;;;3.05;1.35;;;;;;;;;;6081275;23;20174;-88
2021/05/29 13:38:32;;;;;;;2.85;1.30;;;;;;;;;;6079088;23;20231;-90
2021/05/29 13:41:37;;;;;;;2.55;1.10;;;;;;;;;;6060328;23;20201;-87
2021/05/29 13:44:44;;;;;;;1.77;1.00;;;;;;;;;;6079188;23;20171;-89
2021/05/29 13:47:50;;;;;;;2.00;1.23;;;;;;;;;;6077997;23;20174;-90
2021/05/29 13:50:55;;;;;;;2.25;1.02;;;;;;;;;;6077896;23;20639;-90
2021/05/29 13:54:02;;;;;;;1.38;0.80;;;;;;;;;;6079020;23;20203;-88
2021/05/29 13:57:09;;;;;;;3.30;1.50;;;;;;;;;;6079978;23;20557;-90
2021/05/29 14:00:15;;;;;;;3.03;1.85;;;;;;;;;;6062520;23;20215;-90
2021/05/29 14:03:19;;;;;;;2.22;1.40;;;;;;;;;;6060850;23;20169;-90
2021/05/29 14:06:24;;;;;;;2.58;1.42;;;;;;;;;;6079310;23;20178;-89
2021/05/29 14:09:31;;;;;;;2.60;1.75;;;;;;;;;;6079282;23;20279;-89
2021/05/29 14:12:36;;;;;;;2.00;1.25;;;;;;;;;;6062361;23;20231;-87
2021/05/29 14:15:41;;;;;;;3.13;0.90;;;;;;;;;;6077724;23;20602;-89
2021/05/29 14:18:46;;;;;;;1.75;0.90;;;;;;;;;;6079965;23;20224;-88
2021/05/29 14:21:51;;;;;;;2.50;1.10;;;;;;;;;;6079656;23;20198;-89
2021/05/29 14:24:59;;;;;;;4.15;0.90;;;;;;;;;;6080300;23;20218;-88
2021/05/29 14:28:04;;;;;;;3.03;1.00;;;;;;;;;;6090268;23;20540;-90
2021/05/29 14:31:09;;;;;;;7.00;1.13;;;;;;;;;;6077486;23;20174;-89
2021/05/29 14:34:13;;;;;;;2.38;0.73;;;;;;;;;;6095535;23;20195;-89
2021/05/29 14:37:18;;;;;;;1.77;1.00;;;;;;;;;;6096652;23;20254;-90
2021/05/29 14:40:26;;;;;;;2.70;0.82;;;;;;;;;;6080070;23;20198;-91
2021/05/29 14:43:31;;;;;;;2.20;1.38;;;;;;;;;;6081857;23;20196;-91
2021/05/29 14:46:36;;;;;;;3.10;1.10;;;;;;;;;;6098092;23;20178;-88
2021/05/29 14:49:41;;;;;;;11.98;1.50;;;;;;;;;;6096906;23;20238;-89
2021/05/29 14:52:46;;;;;;;3.60;1.75;;;;;;;;;;6097744;23;20170;-91
2021/05/29 14:55:51;;;;;;;15.85;8.02;;;;;;;;;;6101937;23;20218;-91
2021/05/29 14:58:58;;;;;;;1.58;1.08;;;;;;;;;;6099122;23;20190;-89
2021/05/29 15:02:03;;;;;;;4.22;1.58;;;;;;;;;;6098385;23;20278;-91
2021/05/29 15:05:08;;;;;;;1.50;1.20;;;;;;;;;;6099914;23;20200;-90
2021/05/29 15:08:13;;;;;;;2.63;1.50;;;;;;;;;;6082730;23;20189;-89
2021/05/29 15:11:20;;;;;;;1.17;0.80;;;;;;;;;;6100211;23;20190;-88
2021/05/29 15:14:25;;;;;;;2.38;1.15;;;;;;;;;;6098688;23;20515;-89
2021/05/29 15:17:30;;;;;;;1.17;1.00;;;;;;;;;;6080829;23;20178;-91
2021/05/29 15:20:44;;;;;;;2.03;1.30;;;;;;;;;;6095515;23;20212;-89
2021/05/29 15:23:51;;;;;;;3.03;1.30;;;;;;;;;;6078385;23;20222;-86
2021/05/29 15:27:04;;;;;;;3.08;1.45;;;;;;;;;;6079208;23;20327;-86
2021/05/29 15:30:09;;;;;;;4.45;1.20;;;;;;;;;;6064208;23;20243;-89
2021/05/29 15:33:13;;;;;;;1.88;1.00;;;;;;;;;;6080111;23;20254;-89
2021/05/29 15:36:18;;;;;;;3.90;1.60;;;;;;;;;;6079989;23;20246;-91
2021/05/29 15:39:23;;;;;;;2.50;1.30;;;;;;;;;;6078434;23;20166;-89
2021/05/29 15:42:28;;;;;;;2.42;1.02;;;;;;;;;;6063758;23;20155;-89
2021/05/29 15:45:34;;;;;;;1.55;1.10;;;;;;;;;;6081428;23;20230;-86
2021/05/29 15:48:39;;;;;;;2.40;1.15;;;;;;;;;;6083622;23;20226;-88
2021/05/29 15:51:45;;;;;;;1.42;1.10;;;;;;;;;;6084704;23;20170;-89
2021/05/29 15:54:50;;;;;;;2.25;1.55;;;;;;;;;;6082302;23;20513;-89
2021/05/29 15:57:58;;;;;;;2.58;1.30;;;;;;;;;;6087666;23;20219;-89
2021/05/29 16:04:22;;;;;;;6.10;1.40;;;;;;;;;;6063171;23;20198;-87
2021/05/29 16:07:26;;;;;;;2.05;1.17;;;;;;;;;;6080696;23;20515;-90
2021/05/29 16:10:32;;;;;;;1.67;1.30;;;;;;;;;;6062807;23;20191;-89
2021/05/29 16:13:38;;;;;;;2.53;1.35;;;;;;;;;;6083764;23;20186;-88
2021/05/29 16:16:43;;;;;;;3.47;1.52;;;;;;;;;;6084110;23;20185;-89
2021/05/29 16:19:47;;;;;;;2.05;1.20;;;;;;;;;;6083183;23;20173;-89
2021/05/29 16:22:52;;;;;;;2.38;1.40;;;;;;;;;;6081094;23;20362;-89
2021/05/29 16:25:57;;;;;;;2.60;1.60;;;;;;;;;;6082064;23;20174;-88
2021/05/29 16:29:03;;;;;;;3.00;2.13;;;;;;;;;;6082070;23;20179;-90
2021/05/29 16:32:08;;;;;;;6.03;1.92;;;;;;;;;;6083416;23;20178;-90
2021/05/29 16:35:13;;;;;;;2.80;1.90;;;;;;;;;;6082065;23;20170;-89
2021/05/29 16:38:17;;;;;;;7.07;2.30;;;;;;;;;;6082771;23;20178;-88
2021/05/29 16:41:22;;;;;;;2.30;1.58;;;;;;;;;;6079706;23;20219;-91
2021/05/29 16:44:27;;;;;;;12.07;1.65;;;;;;;;;;6079543;23;20202;-90
2021/05/29 16:47:32;;;;;;;2.60;1.48;;;;;;;;;;6078763;23;20247;-88
2021/05/29 16:50:38;;;;;;;4.75;1.65;;;;;;;;;;6079789;23;20178;-89
2021/05/29 16:53:44;;;;;;;3.42;1.60;;;;;;;;;;6079256;23;20179;-90
2021/05/29 16:56:50;;;;;;;3.78;1.67;;;;;;;;;;6080413;23;20173;-89
2021/05/29 16:59:56;;;;;;;4.22;1.50;;;;;;;;;;6064749;23;20235;-89
2021/05/29 17:03:01;;;;;;;4.47;1.58;;;;;;;;;;6078510;23;20189;-90
2021/05/29 17:06:08;;;;;;;3.80;1.20;;;;;;;;;;6063202;23;20194;-90
2021/05/29 17:09:12;;;;;;;1.73;1.33;;;;;;;;;;6080734;23;20654;-89
2021/05/29 17:12:24;;;;;;;2.35;1.35;;;;;;;;;;6080029;23;20174;-87
2021/05/29 17:15:29;;;;;;;1.77;1.40;;;;;;;;;;6077228;23;20187;-91
2021/05/29 17:18:34;;;;;;;4.50;1.35;;;;;;;;;;6077501;23;20178;-89
2021/05/29 17:21:39;;;;;;;3.35;1.60;;;;;;;;;;6078646;23;20190;-88
2021/05/29 17:24:44;;;;;;;5.18;2.20;;;;;;;;;;6078457;23;20191;-90
2021/05/29 17:27:49;;;;;;;9.52;2.20;;;;;;;;;;6086683;23;20222;-90
2021/05/29 17:30:55;;;;;;;2.90;1.85;;;;;;;;;;6095156;23;20226;-90
2021/05/29 17:34:00;;;;;;;2.60;1.42;;;;;;;;;;6077884;23;20167;-90
2021/05/29 17:37:04;;;;;;;2.85;1.40;;;;;;;;;;6093534;23;20174;-88
2021/05/29 17:40:10;;;;;;;2.08;1.60;;;;;;;;;;6079118;23;20218;-91
2021/05/29 17:43:15;;;;;;;2.72;1.40;;;;;;;;;;6078306;23;20171;-89
2021/05/29 17:46:20;;;;;;;2.45;2.05;;;;;;;;;;6077264;23;20170;-89
2021/05/29 17:49:25;;;;;;;4.18;1.65;;;;;;;;;;6078288;23;20167;-89
2021/05/29 17:52:30;;;;;;;1.90;1.42;;;;;;;;;;6095317;23;20630;-89
2021/05/29 17:55:35;;;;;;;2.65;1.38;;;;;;;;;;6093865;23;20254;-88
2021/05/29 18:01:59;;;;;;;3.13;1.67;;;;;;;;;;6078040;23;20242;-91
2021/05/29 18:05:05;;;;;;;5.47;1.58;;;;;;;;;;6096009;23;20254;-88
2021/05/29 18:08:09;;;;;;;2.55;1.38;;;;;;;;;;6079220;23;20215;-91
2021/05/29 18:11:13;;;;;;;1.88;1.40;;;;;;;;;;6092235;23;20242;-91
2021/05/29 18:14:21;;;;;;;2.38;1.55;;;;;;;;;;6078582;23;20161;-90
2021/05/29 18:17:27;;;;;;;2.67;1.60;;;;;;;;;;6096396;23;20634;-90
2021/05/29 18:20:32;;;;;;;10.43;1.83;;;;;;;;;;6078501;23;20202;-90
2021/05/29 18:23:37;;;;;;;4.53;2.60;;;;;;;;;;6093504;23;20182;-88
2021/05/29 18:26:41;;;;;;;10.68;3.38;;;;;;;;;;6091403;23;20198;-89
2021/05/29 18:29:46;;;;;;;9.00;3.53;;;;;;;;;;6060486;23;20177;-90
2021/05/29 18:32:52;;;;;;;5.38;2.55;;;;;;;;;;6076763;23;20211;-88
2021/05/29 18:36:02;;;;;;;3.35;2.30;;;;;;;;;;6077510;23;20170;-92
2021/05/29 18:39:16;;;;;;;3.50;2.00;;;;;;;;;;6080240;23;20243;-90
2021/05/29 18:42:21;;;;;;;3.42;1.95;;;;;;;;;;6081406;23;20203;-90
2021/05/29 18:45:25;;;;;;;5.20;2.20;;;;;;;;;;6063632;23;20230;-90
2021/05/29 18:48:33;;;;;;;3.83;2.05;;;;;;;;;;6062932;23;20222;-90
2021/05/29 18:51:40;;;;;;;5.68;1.60;;;;;;;;;;6080413;23;20192;-90
2021/05/29 18:54:45;;;;;;;6.63;3.55;;;;;;;;;;6079946;23;20178;-90